sensor_id;sensor_type;location;lat;lon;timestamp;pressure;altitude;pressure_sealevel;temperature;humidity
34925;BME280;21130;51.728;8.748;2023-02-20T00:00:57;101336.09;;;4.68;100.00
34925;BME280;21130;51.728;8.748;2023-02-20T00:03:23;101332.31;;;4.69;100.00
34925;BME280;21130;51.728;8.748;2023-02-20T00:05:50;101328.22;;;4.65;100.00
34925;BME280;21130;51.728;8.748;2023-02-20T00:08:16;101341.78;;;4.67;100.00
34925;BME280;21130;51.728;8.748;2023-02-20T00:10:43;101325.09;;;4.68;100.00
34925;BME280;21130;51.728;8.748;2023-02-20T00:13:10;101332.47;;;4.68;100.00
34925;BME280;21130;51.728;8.748;2023-02-20T00:15:37;101328.88;;;4.67;100.00
34925;BME280;21130;51.728;8.748;2023-02-20T00:18:03;101330.19;;;4.71;100.00
34925;BME280;21130;51.728;8.748;2023-02-20T00:20:31;101328.69;;;4.69;100.00
34925;BME280;21130;51.728;8.748;2023-02-20T00:22:58;101333.84;;;4.72;100.00
34925;BME280;21130;51.728;8.748;2023-02-20T00:25:24;101337.59;;;4.71;100.00
34925;BME280;21130;51.728;8.748;2023-02-20T00:27:50;101329.56;;;4.69;100.00
34925;BME280;21130;51.728;8.748;2023-02-20T00:30:20;101324.53;;;4.73;100.00
34925;BME280;21130;51.728;8.748;2023-02-20T00:32:49;101332.09;;;4.71;100.00
34925;BME280;21130;51.728;8.748;2023-02-20T00:35:17;101326.22;;;4.74;100.00
34925;BME280;21130;51.728;8.748;2023-02-20T00:37:44;101313.91;;;4.70;100.00
34925;BME280;21130;51.728;8.748;2023-02-20T00:40:11;101319.41;;;4.70;100.00
34925;BME280;21130;51.728;8.748;2023-02-20T00:42:38;101319.88;;;4.73;100.00
34925;BME280;21130;51.728;8.748;2023-02-20T00:45:05;101309.94;;;4.72;100.00
34925;BME280;21130;51.728;8.748;2023-02-20T00:47:34;101308.03;;;4.73;100.00
34925;BME280;21130;51.728;8.748;2023-02-20T00:50:00;101309.38;;;4.77;100.00
34925;BME280;21130;51.728;8.748;2023-02-20T00:52:27;101306.63;;;4.77;100.00
34925;BME280;21130;51.728;8.748;2023-02-20T00:54:53;101301.47;;;4.74;100.00
34925;BME280;21130;51.728;8.748;2023-02-20T00:57:20;101297.72;;;4.75;100.00
34925;BME280;21130;51.728;8.748;2023-02-20T00:59:46;101304.06;;;4.75;100.00
34925;BME280;21130;51.728;8.748;2023-02-20T01:02:13;101293.59;;;4.71;100.00
34925;BME280;21130;51.728;8.748;2023-02-20T01:04:41;101292.38;;;4.73;100.00
34925;BME280;21130;51.728;8.748;2023-02-20T01:07:07;101285.19;;;4.72;100.00
34925;BME280;21130;51.728;8.748;2023-02-20T01:09:33;101284.69;;;4.69;100.00
34925;BME280;21130;51.728;8.748;2023-02-20T01:12:00;101279.19;;;4.69;100.00
34925;BME280;21130;51.728;8.748;2023-02-20T01:14:26;101275.97;;;4.65;100.00
34925;BME280;21130;51.728;8.748;2023-02-20T01:16:53;101276.16;;;4.64;100.00
34925;BME280;21130;51.728;8.748;2023-02-20T01:19:20;101271.03;;;4.61;100.00
34925;BME280;21130;51.728;8.748;2023-02-20T01:21:48;101272.63;;;4.55;100.00
34925;BME280;21130;51.728;8.748;2023-02-20T01:24:15;101281.06;;;4.53;100.00
34925;BME280;21130;51.728;8.748;2023-02-20T01:26:42;101262.75;;;4.46;100.00
34925;BME280;21130;51.728;8.748;2023-02-20T01:29:09;101261.22;;;4.43;100.00
34925;BME280;21130;51.728;8.748;2023-02-20T01:31:36;101263.50;;;4.40;100.00
34925;BME280;21130;51.728;8.748;2023-02-20T01:34:02;101263.38;;;4.33;100.00
34925;BME280;21130;51.728;8.748;2023-02-20T01:36:28;101260.63;;;4.33;100.00
34925;BME280;21130;51.728;8.748;2023-02-20T01:38:56;101260.47;;;4.35;100.00
34925;BME280;21130;51.728;8.748;2023-02-20T01:41:23;101255.81;;;4.35;100.00
34925;BME280;21130;51.728;8.748;2023-02-20T01:43:50;101249.84;;;4.31;100.00
34925;BME280;21130;51.728;8.748;2023-02-20T01:46:42;101247.28;;;4.30;100.00
34925;BME280;21130;51.728;8.748;2023-02-20T01:49:12;101235.91;;;4.33;100.00
34925;BME280;21130;51.728;8.748;2023-02-20T01:51:42;101238.66;;;4.33;100.00
34925;BME280;21130;51.728;8.748;2023-02-20T01:54:13;101239.72;;;4.32;100.00
34925;BME280;21130;51.728;8.748;2023-02-20T01:56:43;101236.13;;;4.31;100.00
34925;BME280;21130;51.728;8.748;2023-02-20T01:59:13;101226.13;;;4.30;100.00
34925;BME280;21130;51.728;8.748;2023-02-20T02:01:41;101219.88;;;4.22;100.00
34925;BME280;21130;51.728;8.748;2023-02-20T02:04:08;101207.06;;;4.14;100.00
34925;BME280;21130;51.728;8.748;2023-02-20T02:06:39;101209.31;;;4.10;100.00
34925;BME280;21130;51.728;8.748;2023-02-20T02:09:14;101197.88;;;4.07;100.00
34925;BME280;21130;51.728;8.748;2023-02-20T02:11:44;101198.03;;;4.05;100.00
34925;BME280;21130;51.728;8.748;2023-02-20T02:14:12;101192.06;;;4.02;100.00
34925;BME280;21130;51.728;8.748;2023-02-20T02:16:43;101187.97;;;3.98;100.00
34925;BME280;21130;51.728;8.748;2023-02-20T02:19:28;101183.72;;;3.95;100.00
34925;BME280;21130;51.728;8.748;2023-02-20T02:22:31;101181.34;;;3.92;100.00
34925;BME280;21130;51.728;8.748;2023-02-20T02:25:14;101186.06;;;3.98;100.00
34925;BME280;21130;51.728;8.748;2023-02-20T02:31:19;101181.31;;;4.15;100.00
34925;BME280;21130;51.728;8.748;2023-02-20T02:34:03;101188.13;;;4.19;100.00
34925;BME280;21130;51.728;8.748;2023-02-20T02:36:41;101178.66;;;4.22;100.00
34925;BME280;21130;51.728;8.748;2023-02-20T02:39:22;101171.06;;;4.24;100.00
34925;BME280;21130;51.728;8.748;2023-02-20T02:41:53;101163.16;;;4.29;100.00
34925;BME280;21130;51.728;8.748;2023-02-20T02:44:25;101156.41;;;4.31;100.00
34925;BME280;21130;51.728;8.748;2023-02-20T02:46:58;101165.50;;;4.32;100.00
34925;BME280;21130;51.728;8.748;2023-02-20T02:49:30;101169.84;;;4.41;100.00
34925;BME280;21130;51.728;8.748;2023-02-20T02:52:01;101163.91;;;4.38;100.00
34925;BME280;21130;51.728;8.748;2023-02-20T02:54:28;101169.50;;;4.44;100.00
34925;BME280;21130;51.728;8.748;2023-02-20T02:57:16;101158.69;;;4.43;100.00
34925;BME280;21130;51.728;8.748;2023-02-20T02:59:45;101147.53;;;4.44;100.00
34925;BME280;21130;51.728;8.748;2023-02-20T03:02:14;101140.31;;;4.43;100.00
34925;BME280;21130;51.728;8.748;2023-02-20T03:04:46;101137.56;;;4.43;100.00
34925;BME280;21130;51.728;8.748;2023-02-20T03:07:17;101127.03;;;4.47;100.00
34925;BME280;21130;51.728;8.748;2023-02-20T03:09:47;101135.09;;;4.48;100.00
34925;BME280;21130;51.728;8.748;2023-02-20T03:12:16;101127.91;;;4.47;100.00
34925;BME280;21130;51.728;8.748;2023-02-20T03:14:46;101129.22;;;4.51;100.00
34925;BME280;21130;51.728;8.748;2023-02-20T03:17:37;101114.25;;;4.54;100.00
34925;BME280;21130;51.728;8.748;2023-02-20T03:20:09;101110.44;;;4.55;100.00
34925;BME280;21130;51.728;8.748;2023-02-20T03:22:42;101100.97;;;4.58;100.00
34925;BME280;21130;51.728;8.748;2023-02-20T03:25:12;101118.59;;;4.63;100.00
34925;BME280;21130;51.728;8.748;2023-02-20T03:27:43;101110.63;;;4.68;100.00
34925;BME280;21130;51.728;8.748;2023-02-20T03:30:14;101096.31;;;4.73;100.00
34925;BME280;21130;51.728;8.748;2023-02-20T03:32:45;101096.97;;;4.75;100.00
34925;BME280;21130;51.728;8.748;2023-02-20T03:35:32;101092.81;;;4.79;100.00
34925;BME280;21130;51.728;8.748;2023-02-20T03:38:20;101084.34;;;4.81;100.00
34925;BME280;21130;51.728;8.748;2023-02-20T03:41:07;101093.06;;;4.84;100.00
34925;BME280;21130;51.728;8.748;2023-02-20T03:43:52;101083.75;;;4.85;100.00
34925;BME280;21130;51.728;8.748;2023-02-20T03:46:21;101087.63;;;4.91;100.00
34925;BME280;21130;51.728;8.748;2023-02-20T03:48:53;101083.38;;;4.88;100.00
34925;BME280;21130;51.728;8.748;2023-02-20T03:51:21;101077.69;;;4.90;100.00
34925;BME280;21130;51.728;8.748;2023-02-20T03:53:49;101087.84;;;4.89;100.00
34925;BME280;21130;51.728;8.748;2023-02-20T03:56:19;101092.94;;;4.92;100.00
34925;BME280;21130;51.728;8.748;2023-02-20T03:58:53;101100.53;;;4.90;100.00
34925;BME280;21130;51.728;8.748;2023-02-20T04:01:22;101097.97;;;4.89;100.00
34925;BME280;21130;51.728;8.748;2023-02-20T04:03:53;101104.34;;;4.89;100.00
34925;BME280;21130;51.728;8.748;2023-02-20T04:06:25;101097.78;;;4.90;100.00
34925;BME280;21130;51.728;8.748;2023-02-20T04:08:58;101097.69;;;4.84;100.00
34925;BME280;21130;51.728;8.748;2023-02-20T04:11:29;101100.09;;;4.87;100.00
34925;BME280;21130;51.728;8.748;2023-02-20T04:13:57;101093.53;;;4.88;100.00
34925;BME280;21130;51.728;8.748;2023-02-20T04:16:26;101090.94;;;4.86;100.00
34925;BME280;21130;51.728;8.748;2023-02-20T04:18:53;101092.28;;;4.90;100.00
34925;BME280;21130;51.728;8.748;2023-02-20T04:21:24;101104.69;;;4.86;100.00
34925;BME280;21130;51.728;8.748;2023-02-20T04:24:02;101088.19;;;4.86;100.00
34925;BME280;21130;51.728;8.748;2023-02-20T04:26:31;101077.41;;;4.85;100.00
34925;BME280;21130;51.728;8.748;2023-02-20T04:28:57;101066.19;;;4.86;100.00
34925;BME280;21130;51.728;8.748;2023-02-20T04:31:25;101080.63;;;4.88;100.00
34925;BME280;21130;51.728;8.748;2023-02-20T04:33:52;101066.59;;;4.83;100.00
34925;BME280;21130;51.728;8.748;2023-02-20T04:36:19;101071.69;;;4.86;100.00
34925;BME280;21130;51.728;8.748;2023-02-20T04:38:45;101071.06;;;4.84;100.00
34925;BME280;21130;51.728;8.748;2023-02-20T04:41:13;101066.19;;;4.86;100.00
34925;BME280;21130;51.728;8.748;2023-02-20T04:43:39;101065.34;;;4.86;100.00
34925;BME280;21130;51.728;8.748;2023-02-20T04:46:06;101056.00;;;4.80;100.00
34925;BME280;21130;51.728;8.748;2023-02-20T04:48:32;101068.78;;;4.88;100.00
34925;BME280;21130;51.728;8.748;2023-02-20T04:50:59;101058.88;;;4.93;100.00
34925;BME280;21130;51.728;8.748;2023-02-20T04:53:25;101065.44;;;4.92;100.00
34925;BME280;21130;51.728;8.748;2023-02-20T04:55:52;101053.59;;;4.92;100.00
34925;BME280;21130;51.728;8.748;2023-02-20T04:58:19;101050.22;;;4.96;100.00
34925;BME280;21130;51.728;8.748;2023-02-20T05:00:46;101044.38;;;5.00;100.00
34925;BME280;21130;51.728;8.748;2023-02-20T05:03:13;101043.31;;;5.01;100.00
34925;BME280;21130;51.728;8.748;2023-02-20T05:05:40;101041.41;;;5.01;100.00
34925;BME280;21130;51.728;8.748;2023-02-20T05:08:06;101028.53;;;5.02;100.00
34925;BME280;21130;51.728;8.748;2023-02-20T05:10:34;101027.88;;;5.00;100.00
34925;BME280;21130;51.728;8.748;2023-02-20T05:13:01;101018.72;;;4.99;100.00
34925;BME280;21130;51.728;8.748;2023-02-20T05:15:30;101024.19;;;4.92;100.00
34925;BME280;21130;51.728;8.748;2023-02-20T05:17:56;101012.22;;;5.00;100.00
34925;BME280;21130;51.728;8.748;2023-02-20T05:20:23;101006.69;;;5.00;100.00
34925;BME280;21130;51.728;8.748;2023-02-20T05:23:10;100990.63;;;5.04;100.00
34925;BME280;21130;51.728;8.748;2023-02-20T05:25:35;100989.41;;;5.06;100.00
34925;BME280;21130;51.728;8.748;2023-02-20T05:28:02;100989.22;;;5.08;100.00
34925;BME280;21130;51.728;8.748;2023-02-20T05:30:29;100976.31;;;5.08;100.00
34925;BME280;21130;51.728;8.748;2023-02-20T05:32:56;100971.28;;;5.12;100.00
34925;BME280;21130;51.728;8.748;2023-02-20T05:35:22;100970.28;;;5.19;100.00
34925;BME280;21130;51.728;8.748;2023-02-20T05:37:49;100980.03;;;5.22;100.00
34925;BME280;21130;51.728;8.748;2023-02-20T05:40:15;100975.56;;;5.21;100.00
34925;BME280;21130;51.728;8.748;2023-02-20T05:42:42;100977.31;;;5.29;100.00
34925;BME280;21130;51.728;8.748;2023-02-20T05:45:08;100975.88;;;5.33;100.00
34925;BME280;21130;51.728;8.748;2023-02-20T05:47:37;100967.22;;;5.36;100.00
34925;BME280;21130;51.728;8.748;2023-02-20T05:50:04;100964.72;;;5.41;100.00
34925;BME280;21130;51.728;8.748;2023-02-20T05:52:30;100969.88;;;5.51;100.00
34925;BME280;21130;51.728;8.748;2023-02-20T05:54:57;100968.84;;;5.52;100.00
34925;BME280;21130;51.728;8.748;2023-02-20T05:57:24;100952.94;;;5.47;100.00
34925;BME280;21130;51.728;8.748;2023-02-20T05:59:50;100956.38;;;5.56;100.00
34925;BME280;21130;51.728;8.748;2023-02-20T06:02:17;100954.94;;;5.60;100.00
34925;BME280;21130;51.728;8.748;2023-02-20T06:04:44;100961.22;;;5.54;100.00
34925;BME280;21130;51.728;8.748;2023-02-20T06:07:11;100958.72;;;5.59;100.00
34925;BME280;21130;51.728;8.748;2023-02-20T06:09:40;100962.13;;;5.61;100.00
34925;BME280;21130;51.728;8.748;2023-02-20T06:12:07;100961.53;;;5.66;100.00
34925;BME280;21130;51.728;8.748;2023-02-20T06:14:33;100956.19;;;5.64;100.00
34925;BME280;21130;51.728;8.748;2023-02-20T06:17:00;100955.59;;;5.69;100.00
34925;BME280;21130;51.728;8.748;2023-02-20T06:19:26;100951.81;;;5.70;100.00
34925;BME280;21130;51.728;8.748;2023-02-20T06:21:54;100951.41;;;5.73;100.00
34925;BME280;21130;51.728;8.748;2023-02-20T06:24:23;100945.28;;;5.77;100.00
34925;BME280;21130;51.728;8.748;2023-02-20T06:26:49;100952.97;;;5.82;100.00
34925;BME280;21130;51.728;8.748;2023-02-20T06:29:17;100948.94;;;5.84;100.00
34925;BME280;21130;51.728;8.748;2023-02-20T06:31:44;100941.94;;;5.82;100.00
34925;BME280;21130;51.728;8.748;2023-02-20T06:34:11;100939.78;;;5.77;100.00
34925;BME280;21130;51.728;8.748;2023-02-20T06:36:39;100943.44;;;5.84;100.00
34925;BME280;21130;51.728;8.748;2023-02-20T06:39:09;100943.44;;;5.84;100.00
34925;BME280;21130;51.728;8.748;2023-02-20T06:41:35;100937.94;;;5.84;100.00
34925;BME280;21130;51.728;8.748;2023-02-20T06:44:02;100929.00;;;5.82;100.00
34925;BME280;21130;51.728;8.748;2023-02-20T06:46:29;100926.50;;;5.88;100.00
34925;BME280;21130;51.728;8.748;2023-02-20T06:48:57;100920.75;;;5.89;100.00
34925;BME280;21130;51.728;8.748;2023-02-20T06:51:26;100935.41;;;5.90;100.00
34925;BME280;21130;51.728;8.748;2023-02-20T06:59:17;100927.41;;;5.95;100.00
34925;BME280;21130;51.728;8.748;2023-02-20T07:01:45;100926.53;;;5.94;100.00
34925;BME280;21130;51.728;8.748;2023-02-20T07:04:14;100928.66;;;5.92;100.00
34925;BME280;21130;51.728;8.748;2023-02-20T07:06:42;100935.84;;;5.93;100.00
34925;BME280;21130;51.728;8.748;2023-02-20T07:09:08;100946.00;;;5.93;100.00
34925;BME280;21130;51.728;8.748;2023-02-20T07:11:35;100962.97;;;5.90;100.00
34925;BME280;21130;51.728;8.748;2023-02-20T07:14:01;100964.22;;;5.87;100.00
34925;BME280;21130;51.728;8.748;2023-02-20T07:16:29;100970.75;;;5.86;100.00
34925;BME280;21130;51.728;8.748;2023-02-20T07:18:55;100961.66;;;5.85;100.00
34925;BME280;21130;51.728;8.748;2023-02-20T07:21:22;100966.75;;;5.89;100.00
34925;BME280;21130;51.728;8.748;2023-02-20T07:23:48;100965.91;;;5.88;100.00
34925;BME280;21130;51.728;8.748;2023-02-20T07:26:18;100978.78;;;5.81;100.00
34925;BME280;21130;51.728;8.748;2023-02-20T07:28:45;100970.09;;;5.77;100.00
34925;BME280;21130;51.728;8.748;2023-02-20T07:31:11;100967.09;;;5.79;100.00
34925;BME280;21130;51.728;8.748;2023-02-20T07:33:39;100975.59;;;5.77;100.00
34925;BME280;21130;51.728;8.748;2023-02-20T07:36:07;100981.53;;;5.81;100.00
34925;BME280;21130;51.728;8.748;2023-02-20T07:38:34;100968.59;;;5.81;100.00
34925;BME280;21130;51.728;8.748;2023-02-20T07:41:00;100970.75;;;5.79;100.00
34925;BME280;21130;51.728;8.748;2023-02-20T07:43:27;100970.94;;;5.78;100.00
34925;BME280;21130;51.728;8.748;2023-02-20T07:45:53;100968.59;;;5.75;100.00
34925;BME280;21130;51.728;8.748;2023-02-20T07:48:20;100961.16;;;5.75;100.00
34925;BME280;21130;51.728;8.748;2023-02-20T07:50:47;100971.34;;;5.75;100.00
34925;BME280;21130;51.728;8.748;2023-02-20T07:53:20;100969.19;;;5.70;100.00
34925;BME280;21130;51.728;8.748;2023-02-20T07:55:47;100971.94;;;5.70;100.00
34925;BME280;21130;51.728;8.748;2023-02-20T07:58:13;100976.38;;;5.71;100.00
34925;BME280;21130;51.728;8.748;2023-02-20T08:00:39;100961.97;;;5.69;100.00
34925;BME280;21130;51.728;8.748;2023-02-20T08:03:06;100980.84;;;5.72;100.00
34925;BME280;21130;51.728;8.748;2023-02-20T08:05:32;100988.06;;;5.73;100.00
34925;BME280;21130;51.728;8.748;2023-02-20T08:08:00;100981.88;;;5.71;100.00
34925;BME280;21130;51.728;8.748;2023-02-20T08:10:27;101000.50;;;5.69;100.00
34925;BME280;21130;51.728;8.748;2023-02-20T08:12:55;100989.13;;;5.72;100.00
34925;BME280;21130;51.728;8.748;2023-02-20T08:15:22;100996.72;;;5.70;100.00
34925;BME280;21130;51.728;8.748;2023-02-20T08:17:51;100999.88;;;5.67;100.00
34925;BME280;21130;51.728;8.748;2023-02-20T08:20:19;101011.75;;;5.68;100.00
34925;BME280;21130;51.728;8.748;2023-02-20T08:22:46;101003.88;;;5.65;100.00
34925;BME280;21130;51.728;8.748;2023-02-20T08:25:15;100996.25;;;5.67;100.00
34925;BME280;21130;51.728;8.748;2023-02-20T08:27:43;101001.13;;;5.65;100.00
34925;BME280;21130;51.728;8.748;2023-02-20T08:30:12;100999.63;;;5.62;100.00
34925;BME280;21130;51.728;8.748;2023-02-20T08:32:39;101008.94;;;5.61;100.00
34925;BME280;21130;51.728;8.748;2023-02-20T08:35:06;100994.50;;;5.59;100.00
34925;BME280;21130;51.728;8.748;2023-02-20T08:37:32;101016.16;;;5.62;100.00
34925;BME280;21130;51.728;8.748;2023-02-20T08:39:58;101009.34;;;5.58;100.00
34925;BME280;21130;51.728;8.748;2023-02-20T08:42:32;101018.19;;;5.53;100.00
34925;BME280;21130;51.728;8.748;2023-02-20T08:44:58;101015.59;;;5.45;100.00
34925;BME280;21130;51.728;8.748;2023-02-20T08:47:25;101005.16;;;5.40;100.00
34925;BME280;21130;51.728;8.748;2023-02-20T08:49:51;101003.66;;;5.38;100.00
34925;BME280;21130;51.728;8.748;2023-02-20T08:52:18;100992.22;;;5.34;100.00
34925;BME280;21130;51.728;8.748;2023-02-20T08:54:45;101001.50;;;5.33;100.00
34925;BME280;21130;51.728;8.748;2023-02-20T08:57:12;100998.50;;;5.28;100.00
34925;BME280;21130;51.728;8.748;2023-02-20T08:59:40;100995.09;;;5.26;100.00
34925;BME280;21130;51.728;8.748;2023-02-20T09:02:07;100988.16;;;5.30;100.00
34925;BME280;21130;51.728;8.748;2023-02-20T09:04:34;100969.97;;;5.36;100.00
34925;BME280;21130;51.728;8.748;2023-02-20T09:07:02;100973.81;;;5.41;100.00
34925;BME280;21130;51.728;8.748;2023-02-20T09:09:28;100978.75;;;5.46;100.00
34925;BME280;21130;51.728;8.748;2023-02-20T09:11:55;100952.47;;;5.44;100.00
34925;BME280;21130;51.728;8.748;2023-02-20T09:14:22;100957.38;;;5.48;100.00
34925;BME280;21130;51.728;8.748;2023-02-20T09:16:52;100972.84;;;5.49;100.00
34925;BME280;21130;51.728;8.748;2023-02-20T09:19:18;100966.03;;;5.45;100.00
34925;BME280;21130;51.728;8.748;2023-02-20T09:21:46;100987.22;;;5.45;100.00
34925;BME280;21130;51.728;8.748;2023-02-20T09:24:12;100974.50;;;5.44;100.00
34925;BME280;21130;51.728;8.748;2023-02-20T09:26:39;100979.41;;;5.48;100.00
34925;BME280;21130;51.728;8.748;2023-02-20T09:29:05;100985.38;;;5.52;100.00
34925;BME280;21130;51.728;8.748;2023-02-20T09:31:32;100983.00;;;5.49;100.00
34925;BME280;21130;51.728;8.748;2023-02-20T09:34:00;100976.69;;;5.55;100.00
34925;BME280;21130;51.728;8.748;2023-02-20T09:36:28;100975.88;;;5.54;100.00
34925;BME280;21130;51.728;8.748;2023-02-20T09:38:54;100974.97;;;5.54;100.00
34925;BME280;21130;51.728;8.748;2023-02-20T09:41:44;100961.69;;;5.57;100.00
34925;BME280;21130;51.728;8.748;2023-02-20T09:44:19;100958.09;;;5.57;100.00
34925;BME280;21130;51.728;8.748;2023-02-20T09:46:51;100954.69;;;5.61;100.00
34925;BME280;21130;51.728;8.748;2023-02-20T09:49:26;100955.59;;;5.62;100.00
34925;BME280;21130;51.728;8.748;2023-02-20T09:51:59;100953.44;;;5.64;100.00
34925;BME280;21130;51.728;8.748;2023-02-20T09:54:29;100944.59;;;5.69;100.00
34925;BME280;21130;51.728;8.748;2023-02-20T09:56:59;100945.28;;;5.77;100.00
34925;BME280;21130;51.728;8.748;2023-02-20T09:59:28;100938.06;;;5.76;100.00
34925;BME280;21130;51.728;8.748;2023-02-20T10:02:00;100924.28;;;5.76;100.00
34925;BME280;21130;51.728;8.748;2023-02-20T10:04:35;100934.94;;;5.86;100.00
34925;BME280;21130;51.728;8.748;2023-02-20T10:07:11;100945.16;;;5.92;100.00
34925;BME280;21130;51.728;8.748;2023-02-20T10:09:41;100935.47;;;5.96;100.00
34925;BME280;21130;51.728;8.748;2023-02-20T10:12:14;100927.25;;;6.03;100.00
34925;BME280;21130;51.728;8.748;2023-02-20T10:15:06;100940.41;;;6.14;100.00
34925;BME280;21130;51.728;8.748;2023-02-20T10:17:40;100930.50;;;6.26;100.00
34925;BME280;21130;51.728;8.748;2023-02-20T10:20:15;100932.66;;;6.31;100.00
34925;BME280;21130;51.728;8.748;2023-02-20T10:22:48;100928.44;;;6.35;100.00
34925;BME280;21130;51.728;8.748;2023-02-20T10:25:23;100920.34;;;6.34;100.00
34925;BME280;21130;51.728;8.748;2023-02-20T10:27:53;100915.25;;;6.31;100.00
34925;BME280;21130;51.728;8.748;2023-02-20T10:30:27;100912.31;;;6.39;100.00
34925;BME280;21130;51.728;8.748;2023-02-20T10:32:58;100902.59;;;6.56;100.00
34925;BME280;21130;51.728;8.748;2023-02-20T10:35:34;100900.94;;;6.82;100.00
34925;BME280;21130;51.728;8.748;2023-02-20T10:38:07;100896.50;;;6.94;100.00
34925;BME280;21130;51.728;8.748;2023-02-20T10:40:37;100908.19;;;7.16;100.00
34925;BME280;21130;51.728;8.748;2023-02-20T10:43:18;100910.72;;;7.04;100.00
34925;BME280;21130;51.728;8.748;2023-02-20T10:45:51;100893.31;;;6.90;100.00
34925;BME280;21130;51.728;8.748;2023-02-20T10:48:22;100892.25;;;7.11;100.00
34925;BME280;21130;51.728;8.748;2023-02-20T10:50:58;100875.81;;;7.70;100.00
34925;BME280;21130;51.728;8.748;2023-02-20T10:53:33;100875.16;;;8.26;100.00
34925;BME280;21130;51.728;8.748;2023-02-20T10:56:09;100876.03;;;8.20;100.00
34925;BME280;21130;51.728;8.748;2023-02-20T10:58:39;100877.22;;;8.37;100.00
34925;BME280;21130;51.728;8.748;2023-02-20T11:01:09;100865.78;;;8.27;100.00
34925;BME280;21130;51.728;8.748;2023-02-20T11:03:43;100892.69;;;8.07;100.00
34925;BME280;21130;51.728;8.748;2023-02-20T11:06:16;100879.59;;;7.82;100.00
34925;BME280;21130;51.728;8.748;2023-02-20T11:08:44;100879.25;;;7.58;100.00
34925;BME280;21130;51.728;8.748;2023-02-20T11:11:24;100877.31;;;7.59;100.00
34925;BME280;21130;51.728;8.748;2023-02-20T11:13:54;100879.84;;;7.67;100.00
34925;BME280;21130;51.728;8.748;2023-02-20T11:16:24;100860.31;;;7.62;100.00
34925;BME280;21130;51.728;8.748;2023-02-20T11:19:09;100876.69;;;7.57;100.00
34925;BME280;21130;51.728;8.748;2023-02-20T11:21:41;100865.47;;;7.32;100.00
34925;BME280;21130;51.728;8.748;2023-02-20T11:24:22;100881.00;;;7.26;100.00
34925;BME280;21130;51.728;8.748;2023-02-20T11:26:55;100875.28;;;7.08;100.00
34925;BME280;21130;51.728;8.748;2023-02-20T11:29:22;100877.59;;;7.04;100.00
34925;BME280;21130;51.728;8.748;2023-02-20T11:31:49;100892.47;;;7.03;100.00
34925;BME280;21130;51.728;8.748;2023-02-20T11:34:18;100885.47;;;6.94;100.00
34925;BME280;21130;51.728;8.748;2023-02-20T11:36:48;100880.16;;;6.92;100.00
34925;BME280;21130;51.728;8.748;2023-02-20T11:39:20;100886.53;;;6.93;100.00
34925;BME280;21130;51.728;8.748;2023-02-20T11:41:49;100897.56;;;6.80;100.00
34925;BME280;21130;51.728;8.748;2023-02-20T11:44:24;100894.59;;;6.75;100.00
34925;BME280;21130;51.728;8.748;2023-02-20T11:47:17;100878.44;;;6.71;100.00
34925;BME280;21130;51.728;8.748;2023-02-20T11:49:45;100890.13;;;6.80;100.00
34925;BME280;21130;51.728;8.748;2023-02-20T11:52:18;100872.91;;;6.71;100.00
34925;BME280;21130;51.728;8.748;2023-02-20T11:54:45;100879.50;;;6.57;100.00
34925;BME280;21130;51.728;8.748;2023-02-20T11:57:22;100886.69;;;6.58;100.00
34925;BME280;21130;51.728;8.748;2023-02-20T11:59:51;100878.44;;;6.58;100.00
34925;BME280;21130;51.728;8.748;2023-02-20T12:02:24;100880.78;;;6.55;100.00
34925;BME280;21130;51.728;8.748;2023-02-20T12:05:04;100887.78;;;6.57;100.00
34925;BME280;21130;51.728;8.748;2023-02-20T12:07:36;100890.31;;;6.59;100.00
34925;BME280;21130;51.728;8.748;2023-02-20T12:10:13;100877.38;;;6.53;100.00
34925;BME280;21130;51.728;8.748;2023-02-20T12:12:40;100875.22;;;6.48;100.00
34925;BME280;21130;51.728;8.748;2023-02-20T12:15:11;100896.63;;;6.46;100.00
34925;BME280;21130;51.728;8.748;2023-02-20T12:17:46;100883.94;;;6.45;100.00
34925;BME280;21130;51.728;8.748;2023-02-20T12:20:18;100871.59;;;6.41;100.00
34925;BME280;21130;51.728;8.748;2023-02-20T12:22:56;100861.88;;;6.45;100.00
34925;BME280;21130;51.728;8.748;2023-02-20T12:25:35;100858.25;;;6.44;100.00
34925;BME280;21130;51.728;8.748;2023-02-20T12:28:15;100854.41;;;6.39;100.00
34925;BME280;21130;51.728;8.748;2023-02-20T12:31:01;100855.69;;;6.36;100.00
34925;BME280;21130;51.728;8.748;2023-02-20T12:33:41;100852.72;;;6.31;100.00
34925;BME280;21130;51.728;8.748;2023-02-20T12:36:21;100858.44;;;6.30;100.00
34925;BME280;21130;51.728;8.748;2023-02-20T12:38:57;100842.75;;;6.30;100.00
34925;BME280;21130;51.728;8.748;2023-02-20T12:41:32;100840.00;;;6.30;100.00
34925;BME280;21130;51.728;8.748;2023-02-20T12:44:18;100833.41;;;6.24;100.00
34925;BME280;21130;51.728;8.748;2023-02-20T12:46:56;100833.41;;;6.24;100.00
34925;BME280;21130;51.728;8.748;2023-02-20T12:49:53;100825.75;;;6.26;100.00
34925;BME280;21130;51.728;8.748;2023-02-20T12:52:43;100815.16;;;6.23;100.00
34925;BME280;21130;51.728;8.748;2023-02-20T12:55:21;100818.38;;;6.27;100.00
34925;BME280;21130;51.728;8.748;2023-02-20T12:57:58;100819.41;;;6.26;100.00
34925;BME280;21130;51.728;8.748;2023-02-20T13:00:31;100800.53;;;6.23;100.00
34925;BME280;21130;51.728;8.748;2023-02-20T13:03:04;100819.19;;;6.34;100.00
34925;BME280;21130;51.728;8.748;2023-02-20T13:05:34;100805.66;;;6.33;100.00
34925;BME280;21130;51.728;8.748;2023-02-20T13:08:06;100815.81;;;6.25;100.00
34925;BME280;21130;51.728;8.748;2023-02-20T13:10:44;100829.13;;;6.22;100.00
34925;BME280;21130;51.728;8.748;2023-02-20T13:13:12;100828.28;;;6.21;100.00
34925;BME280;21130;51.728;8.748;2023-02-20T13:15:47;100816.44;;;6.27;100.00